sensor_id;sensor_type;location;lat;lon;timestamp;temperature;humidity
68109;SHT30;54893;49.864;19.084;2023-07-24T00:03:31;23.49;63.95
68109;SHT30;54893;49.864;19.084;2023-07-24T00:08:32;23.38;64.63
68109;SHT30;54893;49.864;19.084;2023-07-24T00:13:32;23.40;64.30
68109;SHT30;54893;49.864;19.084;2023-07-24T00:18:32;23.34;64.83
68109;SHT30;54893;49.864;19.084;2023-07-24T00:23:33;23.30;65.15
68109;SHT30;54893;49.864;19.084;2023-07-24T00:28:33;23.13;65.42
68109;SHT30;54893;49.864;19.084;2023-07-24T00:33:33;23.09;66.21
68109;SHT30;54893;49.864;19.084;2023-07-24T00:38:34;23.03;66.54
68109;SHT30;54893;49.864;19.084;2023-07-24T00:43:35;22.95;67.10
68109;SHT30;54893;49.864;19.084;2023-07-24T00:48:35;23.00;67.32
68109;SHT30;54893;49.864;19.084;2023-07-24T00:53:35;22.84;67.57
68109;SHT30;54893;49.864;19.084;2023-07-24T00:58:37;22.92;67.80
68109;SHT30;54893;49.864;19.084;2023-07-24T01:03:38;23.03;68.32
68109;SHT30;54893;49.864;19.084;2023-07-24T01:08:38;23.24;68.52
68109;SHT30;54893;49.864;19.084;2023-07-24T01:13:42;23.26;68.42
68109;SHT30;54893;49.864;19.084;2023-07-24T01:18:44;23.13;68.94
68109;SHT30;54893;49.864;19.084;2023-07-24T01:23:58;23.23;68.92
68109;SHT30;54893;49.864;19.084;2023-07-24T01:28:59;23.05;68.60
68109;SHT30;54893;49.864;19.084;2023-07-24T01:33:59;23.08;68.49
68109;SHT30;54893;49.864;19.084;2023-07-24T01:39:00;23.22;68.50
68109;SHT30;54893;49.864;19.084;2023-07-24T01:44:00;23.33;69.02
68109;SHT30;54893;49.864;19.084;2023-07-24T01:49:01;23.39;69.14
68109;SHT30;54893;49.864;19.084;2023-07-24T01:54:01;23.34;69.23
68109;SHT30;54893;49.864;19.084;2023-07-24T01:59:02;23.20;69.75
68109;SHT30;54893;49.864;19.084;2023-07-24T02:04:02;23.13;70.25
68109;SHT30;54893;49.864;19.084;2023-07-24T02:09:02;23.12;70.36
68109;SHT30;54893;49.864;19.084;2023-07-24T02:14:03;23.00;70.64
68109;SHT30;54893;49.864;19.084;2023-07-24T02:19:03;22.91;71.05
68109;SHT30;54893;49.864;19.084;2023-07-24T02:24:04;22.82;71.57
68109;SHT30;54893;49.864;19.084;2023-07-24T02:29:04;22.66;72.53
68109;SHT30;54893;49.864;19.084;2023-07-24T02:34:04;22.54;72.95
68109;SHT30;54893;49.864;19.084;2023-07-24T02:39:04;22.37;73.00
68109;SHT30;54893;49.864;19.084;2023-07-24T02:44:05;22.27;73.44
68109;SHT30;54893;49.864;19.084;2023-07-24T02:49:05;22.35;73.42
68109;SHT30;54893;49.864;19.084;2023-07-24T02:54:06;22.25;74.21
68109;SHT30;54893;49.864;19.084;2023-07-24T02:59:06;22.30;74.47
68109;SHT30;54893;49.864;19.084;2023-07-24T03:04:06;22.14;74.50
68109;SHT30;54893;49.864;19.084;2023-07-24T03:09:07;22.05;75.03
68109;SHT30;54893;49.864;19.084;2023-07-24T03:14:07;22.02;75.59
68109;SHT30;54893;49.864;19.084;2023-07-24T03:19:07;22.04;75.73
68109;SHT30;54893;49.864;19.084;2023-07-24T03:24:08;22.11;75.85
68109;SHT30;54893;49.864;19.084;2023-07-24T03:29:08;22.10;75.94
68109;SHT30;54893;49.864;19.084;2023-07-24T03:34:08;22.00;76.96
68109;SHT30;54893;49.864;19.084;2023-07-24T03:39:10;22.01;77.09
68109;SHT30;54893;49.864;19.084;2023-07-24T03:44:11;22.04;77.54
68109;SHT30;54893;49.864;19.084;2023-07-24T03:49:11;22.22;76.96
68109;SHT30;54893;49.864;19.084;2023-07-24T03:54:11;22.34;76.99
68109;SHT30;54893;49.864;19.084;2023-07-24T03:59:12;22.40;76.93
68109;SHT30;54893;49.864;19.084;2023-07-24T04:04:12;22.41;77.35
68109;SHT30;54893;49.864;19.084;2023-07-24T04:09:12;22.52;76.63
68109;SHT30;54893;49.864;19.084;2023-07-24T04:14:14;22.56;77.51
68109;SHT30;54893;49.864;19.084;2023-07-24T04:19:15;22.73;76.12
68109;SHT30;54893;49.864;19.084;2023-07-24T04:24:15;22.98;75.87
68109;SHT30;54893;49.864;19.084;2023-07-24T04:29:15;23.08;75.70
68109;SHT30;54893;49.864;19.084;2023-07-24T04:34:16;23.33;76.71
68109;SHT30;54893;49.864;19.084;2023-07-24T04:39:16;23.54;75.94
68109;SHT30;54893;49.864;19.084;2023-07-24T04:44:16;23.67;75.23
68109;SHT30;54893;49.864;19.084;2023-07-24T04:49:17;23.87;75.27
68109;SHT30;54893;49.864;19.084;2023-07-24T04:54:17;24.01;73.69
68109;SHT30;54893;49.864;19.084;2023-07-24T04:59:17;24.08;72.81
68109;SHT30;54893;49.864;19.084;2023-07-24T05:04:18;24.20;72.75
68109;SHT30;54893;49.864;19.084;2023-07-24T05:09:18;24.40;72.04
68109;SHT30;54893;49.864;19.084;2023-07-24T05:14:18;24.58;71.87
68109;SHT30;54893;49.864;19.084;2023-07-24T05:19:19;24.85;71.33
68109;SHT30;54893;49.864;19.084;2023-07-24T05:24:19;24.84;70.67
68109;SHT30;54893;49.864;19.084;2023-07-24T05:29:19;25.19;69.54
68109;SHT30;54893;49.864;19.084;2023-07-24T05:34:20;25.45;68.72
68109;SHT30;54893;49.864;19.084;2023-07-24T05:39:21;25.49;68.67
68109;SHT30;54893;49.864;19.084;2023-07-24T05:44:21;26.03;67.37
68109;SHT30;54893;49.864;19.084;2023-07-24T05:49:22;26.27;66.69
68109;SHT30;54893;49.864;19.084;2023-07-24T05:54:22;26.70;66.03
68109;SHT30;54893;49.864;19.084;2023-07-24T05:59:23;26.74;65.18
68109;SHT30;54893;49.864;19.084;2023-07-24T06:04:23;26.94;64.31
68109;SHT30;54893;49.864;19.084;2023-07-24T06:09:23;26.94;62.61
68109;SHT30;54893;49.864;19.084;2023-07-24T06:14:24;27.08;63.33
68109;SHT30;54893;49.864;19.084;2023-07-24T06:19:24;27.14;63.23
68109;SHT30;54893;49.864;19.084;2023-07-24T06:24:24;27.55;62.65
68109;SHT30;54893;49.864;19.084;2023-07-24T06:29:25;27.65;62.28
68109;SHT30;54893;49.864;19.084;2023-07-24T06:34:26;27.42;62.83
68109;SHT30;54893;49.864;19.084;2023-07-24T06:39:26;27.41;62.28
68109;SHT30;54893;49.864;19.084;2023-07-24T06:44:28;27.19;62.31
68109;SHT30;54893;49.864;19.084;2023-07-24T06:49:28;27.86;61.90
68109;SHT30;54893;49.864;19.084;2023-07-24T06:54:29;28.02;61.05
68109;SHT30;54893;49.864;19.084;2023-07-24T06:59:29;28.32;60.27
68109;SHT30;54893;49.864;19.084;2023-07-24T07:04:29;28.17;60.14
68109;SHT30;54893;49.864;19.084;2023-07-24T07:09:30;28.44;59.22
68109;SHT30;54893;49.864;19.084;2023-07-24T07:14:30;28.54;58.02
68109;SHT30;54893;49.864;19.084;2023-07-24T07:19:30;28.39;58.05
68109;SHT30;54893;49.864;19.084;2023-07-24T07:24:31;28.63;58.29
68109;SHT30;54893;49.864;19.084;2023-07-24T07:29:31;28.84;57.81
68109;SHT30;54893;49.864;19.084;2023-07-24T07:34:31;29.08;58.77
68109;SHT30;54893;49.864;19.084;2023-07-24T07:39:32;29.58;56.68
68109;SHT30;54893;49.864;19.084;2023-07-24T07:44:33;29.00;55.63
68109;SHT30;54893;49.864;19.084;2023-07-24T07:49:33;28.53;56.87
68109;SHT30;54893;49.864;19.084;2023-07-24T07:54:33;29.07;57.44
68109;SHT30;54893;49.864;19.084;2023-07-24T07:59:33;29.08;58.72
68109;SHT30;54893;49.864;19.084;2023-07-24T08:04:35;28.65;58.27
68109;SHT30;54893;49.864;19.084;2023-07-24T08:09:35;28.37;59.11
68109;SHT30;54893;49.864;19.084;2023-07-24T08:14:38;28.98;58.37
68109;SHT30;54893;49.864;19.084;2023-07-24T08:19:38;28.34;60.24
68109;SHT30;54893;49.864;19.084;2023-07-24T08:24:38;28.72;59.25
68109;SHT30;54893;49.864;19.084;2023-07-24T08:29:39;30.06;56.52
68109;SHT30;54893;49.864;19.084;2023-07-24T08:34:39;29.35;54.32
68109;SHT30;54893;49.864;19.084;2023-07-24T08:39:39;29.58;55.73
68109;SHT30;54893;49.864;19.084;2023-07-24T08:44:40;30.53;52.11
68109;SHT30;54893;49.864;19.084;2023-07-24T08:49:42;31.12;50.83
68109;SHT30;54893;49.864;19.084;2023-07-24T08:54:44;31.22;47.56
68109;SHT30;54893;49.864;19.084;2023-07-24T08:59:44;30.39;48.48
68109;SHT30;54893;49.864;19.084;2023-07-24T09:04:45;30.54;47.98
68109;SHT30;54893;49.864;19.084;2023-07-24T09:09:47;29.69;49.89
68109;SHT30;54893;49.864;19.084;2023-07-24T09:14:49;29.29;51.35
68109;SHT30;54893;49.864;19.084;2023-07-24T09:19:55;29.02;50.25
68109;SHT30;54893;49.864;19.084;2023-07-24T09:24:57;28.65;51.21
68109;SHT30;54893;49.864;19.084;2023-07-24T09:29:57;28.58;52.30
68109;SHT30;54893;49.864;19.084;2023-07-24T09:34:58;28.27;53.35
68109;SHT30;54893;49.864;19.084;2023-07-24T09:39:58;27.97;54.03
68109;SHT30;54893;49.864;19.084;2023-07-24T09:44:59;28.03;53.82
68109;SHT30;54893;49.864;19.084;2023-07-24T09:50:03;28.07;53.44
68109;SHT30;54893;49.864;19.084;2023-07-24T09:55:13;27.82;54.61
68109;SHT30;54893;49.864;19.084;2023-07-24T10:00:16;27.52;53.94
68109;SHT30;54893;49.864;19.084;2023-07-24T10:05:17;27.14;54.25
68109;SHT30;54893;49.864;19.084;2023-07-24T10:10:19;27.12;53.86
68109;SHT30;54893;49.864;19.084;2023-07-24T10:15:21;26.88;54.94
68109;SHT30;54893;49.864;19.084;2023-07-24T10:20:21;26.91;54.23
68109;SHT30;54893;49.864;19.084;2023-07-24T10:25:29;26.90;54.65
68109;SHT30;54893;49.864;19.084;2023-07-24T10:30:31;27.21;54.26
68109;SHT30;54893;49.864;19.084;2023-07-24T10:35:38;28.24;53.53
68109;SHT30;54893;49.864;19.084;2023-07-24T10:40:40;29.21;51.99
68109;SHT30;54893;49.864;19.084;2023-07-24T10:45:52;29.31;52.12
68109;SHT30;54893;49.864;19.084;2023-07-24T10:50:52;29.04;52.75
68109;SHT30;54893;49.864;19.084;2023-07-24T10:55:53;28.97;53.08
68109;SHT30;54893;49.864;19.084;2023-07-24T11:00:53;29.14;52.92
68109;SHT30;54893;49.864;19.084;2023-07-24T11:05:54;30.29;51.19
68109;SHT30;54893;49.864;19.084;2023-07-24T11:10:56;30.47;50.79
68109;SHT30;54893;49.864;19.084;2023-07-24T11:16:05;29.72;51.00
68109;SHT30;54893;49.864;19.084;2023-07-24T11:21:05;29.23;52.35
68109;SHT30;54893;49.864;19.084;2023-07-24T11:26:07;29.44;54.30
68109;SHT30;54893;49.864;19.084;2023-07-24T11:31:07;29.90;52.96
68109;SHT30;54893;49.864;19.084;2023-07-24T11:36:09;30.44;52.41
68109;SHT30;54893;49.864;19.084;2023-07-24T11:41:11;29.62;53.01
68109;SHT30;54893;49.864;19.084;2023-07-24T11:46:25;29.80;52.26
68109;SHT30;54893;49.864;19.084;2023-07-24T11:51:26;30.00;53.52
68109;SHT30;54893;49.864;19.084;2023-07-24T11:56:29;30.20;54.26
68109;SHT30;54893;49.864;19.084;2023-07-24T12:01:30;30.00;53.88
68109;SHT30;54893;49.864;19.084;2023-07-24T12:06:31;30.84;53.51
68109;SHT30;54893;49.864;19.084;2023-07-24T12:11:32;31.12;52.95
68109;SHT30;54893;49.864;19.084;2023-07-24T12:16:34;30.90;52.77
68109;SHT30;54893;49.864;19.084;2023-07-24T12:21:34;30.59;53.74
68109;SHT30;54893;49.864;19.084;2023-07-24T12:26:34;31.73;51.90
68109;SHT30;54893;49.864;19.084;2023-07-24T12:31:35;32.17;50.32
68109;SHT30;54893;49.864;19.084;2023-07-24T12:36:35;32.52;49.99
68109;SHT30;54893;49.864;19.084;2023-07-24T12:41:35;32.26;48.83
68109;SHT30;54893;49.864;19.084;2023-07-24T12:46:36;32.41;48.75
68109;SHT30;54893;49.864;19.084;2023-07-24T12:51:36;32.47;48.73
68109;SHT30;54893;49.864;19.084;2023-07-24T12:56:36;32.59;48.48
68109;SHT30;54893;49.864;19.084;2023-07-24T13:01:37;32.26;49.49
68109;SHT30;54893;49.864;19.084;2023-07-24T13:06:37;31.72;50.55
68109;SHT30;54893;49.864;19.084;2023-07-24T13:11:37;30.84;50.82
68109;SHT30;54893;49.864;19.084;2023-07-24T13:16:38;31.28;49.40
68109;SHT30;54893;49.864;19.084;2023-07-24T13:21:38;31.78;50.05
68109;SHT30;54893;49.864;19.084;2023-07-24T13:26:43;31.93;49.94
68109;SHT30;54893;49.864;19.084;2023-07-24T13:31:44;32.73;47.45
68109;SHT30;54893;49.864;19.084;2023-07-24T13:36:45;31.62;48.76
68109;SHT30;54893;49.864;19.084;2023-07-24T13:41:45;31.95;48.40
68109;SHT30;54893;49.864;19.084;2023-07-24T13:46:45;32.37;47.88
68109;SHT30;54893;49.864;19.084;2023-07-24T13:51:46;32.46;48.10
68109;SHT30;54893;49.864;19.084;2023-07-24T13:56:46;33.20;46.58
68109;SHT30;54893;49.864;19.084;2023-07-24T14:01:46;33.58;47.04
68109;SHT30;54893;49.864;19.084;2023-07-24T14:06:46;33.97;45.80
68109;SHT30;54893;49.864;19.084;2023-07-24T14:11:47;36.35;43.94
68109;SHT30;54893;49.864;19.084;2023-07-24T14:16:47;38.53;40.50
68109;SHT30;54893;49.864;19.084;2023-07-24T14:21:47;40.12;39.36
68109;SHT30;54893;49.864;19.084;2023-07-24T14:26:48;39.95;40.06
68109;SHT30;54893;49.864;19.084;2023-07-24T14:31:48;38.99;38.84
68109;SHT30;54893;49.864;19.084;2023-07-24T14:36:49;39.02;38.87
68109;SHT30;54893;49.864;19.084;2023-07-24T14:41:49;37.22;40.71
68109;SHT30;54893;49.864;19.084;2023-07-24T14:46:49;36.02;40.95
68109;SHT30;54893;49.864;19.084;2023-07-24T14:51:50;36.52;39.68
68109;SHT30;54893;49.864;19.084;2023-07-24T14:56:50;38.63;38.34
68109;SHT30;54893;49.864;19.084;2023-07-24T15:01:51;39.01;37.51
68109;SHT30;54893;49.864;19.084;2023-07-24T15:06:51;38.04;39.30
68109;SHT30;54893;49.864;19.084;2023-07-24T15:11:51;36.53;41.21
68109;SHT30;54893;49.864;19.084;2023-07-24T15:16:52;36.69;40.41
68109;SHT30;54893;49.864;19.084;2023-07-24T15:21:52;37.99;39.91
68109;SHT30;54893;49.864;19.084;2023-07-24T15:26:52;34.82;42.08
68109;SHT30;54893;49.864;19.084;2023-07-24T15:31:53;32.55;45.19
68109;SHT30;54893;49.864;19.084;2023-07-24T15:36:53;31.72;46.13
68109;SHT30;54893;49.864;19.084;2023-07-24T15:41:53;31.18;47.39
68109;SHT30;54893;49.864;19.084;2023-07-24T15:46:54;30.85;47.85
68109;SHT30;54893;49.864;19.084;2023-07-24T15:51:54;30.36;49.12
68109;SHT30;54893;49.864;19.084;2023-07-24T15:56:54;29.93;49.83
68109;SHT30;54893;49.864;19.084;2023-07-24T16:01:55;29.73;50.68
68109;SHT30;54893;49.864;19.084;2023-07-24T16:06:55;29.49;51.08
68109;SHT30;54893;49.864;19.084;2023-07-24T16:11:55;29.62;51.17
68109;SHT30;54893;49.864;19.084;2023-07-24T16:16:56;29.22;54.00
68109;SHT30;54893;49.864;19.084;2023-07-24T16:21:56;27.65;57.83
68109;SHT30;54893;49.864;19.084;2023-07-24T16:26:56;26.80;59.94
68109;SHT30;54893;49.864;19.084;2023-07-24T16:31:57;26.96;59.01
68109;SHT30;54893;49.864;19.084;2023-07-24T16:36:57;26.58;60.90
68109;SHT30;54893;49.864;19.084;2023-07-24T16:41:57;25.40;63.42
68109;SHT30;54893;49.864;19.084;2023-07-24T16:46:58;24.31;67.22
68109;SHT30;54893;49.864;19.084;2023-07-24T16:51:58;23.20;73.95
68109;SHT30;54893;49.864;19.084;2023-07-24T16:57:00;21.50;80.87
68109;SHT30;54893;49.864;19.084;2023-07-24T17:02:00;20.39;86.07
68109;SHT30;54893;49.864;19.084;2023-07-24T17:07:01;20.07;89.90
68109;SHT30;54893;49.864;19.084;2023-07-24T17:12:01;20.07;84.73
68109;SHT30;54893;49.864;19.084;2023-07-24T17:17:02;20.08;88.33
68109;SHT30;54893;49.864;19.084;2023-07-24T17:22:02;20.04;87.50
68109;SHT30;54893;49.864;19.084;2023-07-24T17:27:03;19.97;87.86
68109;SHT30;54893;49.864;19.084;2023-07-24T17:32:03;20.36;89.39
68109;SHT30;54893;49.864;19.084;2023-07-24T17:37:05;20.56;89.82
68109;SHT30;54893;49.864;19.084;2023-07-24T17:42:05;19.36;93.56
68109;SHT30;54893;49.864;19.084;2023-07-24T17:47:06;18.89;94.92
68109;SHT30;54893;49.864;19.084;2023-07-24T17:52:06;18.65;94.69
68109;SHT30;54893;49.864;19.084;2023-07-24T17:57:09;18.63;94.67
68109;SHT30;54893;49.864;19.084;2023-07-24T18:02:13;18.72;96.96
68109;SHT30;54893;49.864;19.084;2023-07-24T18:07:13;18.86;97.05
68109;SHT30;54893;49.864;19.084;2023-07-24T18:12:13;18.92;93.58
68109;SHT30;54893;49.864;19.084;2023-07-24T18:17:14;18.96;92.97
68109;SHT30;54893;49.864;19.084;2023-07-24T18:22:14;18.86;93.99
68109;SHT30;54893;49.864;19.084;2023-07-24T18:27:17;18.81;93.02
68109;SHT30;54893;49.864;19.084;2023-07-24T18:32:18;18.85;94.26
68109;SHT30;54893;49.864;19.084;2023-07-24T18:37:19;18.92;94.97
68109;SHT30;54893;49.864;19.084;2023-07-24T18:42:19;18.88;96.51
68109;SHT30;54893;49.864;19.084;2023-07-24T18:47:20;18.83;95.73
68109;SHT30;54893;49.864;19.084;2023-07-24T18:52:20;18.93;96.25
68109;SHT30;54893;49.864;19.084;2023-07-24T18:57:20;19.03;96.37
68109;SHT30;54893;49.864;19.084;2023-07-24T19:02:21;19.00;95.80
68109;SHT30;54893;49.864;19.084;2023-07-24T19:07:21;18.92;95.91
68109;SHT30;54893;49.864;19.084;2023-07-24T19:12:21;18.82;95.41
68109;SHT30;54893;49.864;19.084;2023-07-24T19:17:22;18.91;92.09
68109;SHT30;54893;49.864;19.084;2023-07-24T19:22:22;19.41;93.81
68109;SHT30;54893;49.864;19.084;2023-07-24T19:27:22;19.17;92.39
68109;SHT30;54893;49.864;19.084;2023-07-24T19:32:23;19.33;91.42
68109;SHT30;54893;49.864;19.084;2023-07-24T19:37:25;18.95;93.89
68109;SHT30;54893;49.864;19.084;2023-07-24T19:42:25;18.69;94.22
68109;SHT30;54893;49.864;19.084;2023-07-24T19:47:25;18.52;93.50
68109;SHT30;54893;49.864;19.084;2023-07-24T19:52:26;18.41;93.40
68109;SHT30;54893;49.864;19.084;2023-07-24T19:57:27;18.31;92.79
68109;SHT30;54893;49.864;19.084;2023-07-24T20:02:28;18.24;94.06
68109;SHT30;54893;49.864;19.084;2023-07-24T20:07:28;18.09;94.89
68109;SHT30;54893;49.864;19.084;2023-07-24T20:12:28;18.14;95.39
68109;SHT30;54893;49.864;19.084;2023-07-24T20:17:29;18.35;92.12
68109;SHT30;54893;49.864;19.084;2023-07-24T20:22:29;18.55;92.35
68109;SHT30;54893;49.864;19.084;2023-07-24T20:27:30;18.42;92.17
68109;SHT30;54893;49.864;19.084;2023-07-24T20:32:30;18.29;92.71
68109;SHT30;54893;49.864;19.084;2023-07-24T20:37:31;18.52;92.35
68109;SHT30;54893;49.864;19.084;2023-07-24T20:42:32;18.47;91.98
68109;SHT30;54893;49.864;19.084;2023-07-24T20:47:32;18.66;92.24
68109;SHT30;54893;49.864;19.084;2023-07-24T20:52:33;18.86;91.28
68109;SHT30;54893;49.864;19.084;2023-07-24T20:57:33;18.86;91.19
68109;SHT30;54893;49.864;19.084;2023-07-24T21:02:33;18.86;91.86
68109;SHT30;54893;49.864;19.084;2023-07-24T21:07:34;18.85;90.77
68109;SHT30;54893;49.864;19.084;2023-07-24T21:12:35;18.77;92.07
68109;SHT30;54893;49.864;19.084;2023-07-24T21:17:35;18.85;90.42
68109;SHT30;54893;49.864;19.084;2023-07-24T21:22:36;18.82;90.49
68109;SHT30;54893;49.864;19.084;2023-07-24T21:27:36;19.07;89.58
68109;SHT30;54893;49.864;19.084;2023-07-24T21:32:36;18.99;90.09
68109;SHT30;54893;49.864;19.084;2023-07-24T21:37:37;18.89;91.31
68109;SHT30;54893;49.864;19.084;2023-07-24T21:42:39;18.92;90.46
68109;SHT30;54893;49.864;19.084;2023-07-24T21:47:39;18.95;90.99
68109;SHT30;54893;49.864;19.084;2023-07-24T21:52:41;19.00;90.61
68109;SHT30;54893;49.864;19.084;2023-07-24T21:57:43;18.99;91.01
68109;SHT30;54893;49.864;19.084;2023-07-24T22:02:43;18.86;92.56
68109;SHT30;54893;49.864;19.084;2023-07-24T22:07:43;18.81;92.58
68109;SHT30;54893;49.864;19.084;2023-07-24T22:12:44;18.71;91.95
68109;SHT30;54893;49.864;19.084;2023-07-24T22:17:44;18.96;90.94
68109;SHT30;54893;49.864;19.084;2023-07-24T22:22:44;18.82;91.17
68109;SHT30;54893;49.864;19.084;2023-07-24T22:27:45;18.72;91.85
68109;SHT30;54893;49.864;19.084;2023-07-24T22:32:45;18.66;91.35
68109;SHT30;54893;49.864;19.084;2023-07-24T22:37:45;18.58;91.06
68109;SHT30;54893;49.864;19.084;2023-07-24T22:42:46;18.61;90.63
68109;SHT30;54893;49.864;19.084;2023-07-24T22:47:46;18.69;90.94
68109;SHT30;54893;49.864;19.084;2023-07-24T22:52:47;18.75;90.23
68109;SHT30;54893;49.864;19.084;2023-07-24T22:57:47;18.86;88.98
68109;SHT30;54893;49.864;19.084;2023-07-24T23:02:48;19.07;88.07
68109;SHT30;54893;49.864;19.084;2023-07-24T23:07:48;19.26;87.36
68109;SHT30;54893;49.864;19.084;2023-07-24T23:12:53;19.26;87.21
68109;SHT30;54893;49.864;19.084;2023-07-24T23:17:53;19.39;86.91
68109;SHT30;54893;49.864;19.084;2023-07-24T23:22:53;19.43;86.37
68109;SHT30;54893;49.864;19.084;2023-07-24T23:27:53;19.50;85.90
68109;SHT30;54893;49.864;19.084;2023-07-24T23:32:54;19.51;85.57
68109;SHT30;54893;49.864;19.084;2023-07-24T23:37:54;19.40;85.74
68109;SHT30;54893;49.864;19.084;2023-07-24T23:42:54;19.57;85.01
68109;SHT30;54893;49.864;19.084;2023-07-24T23:47:55;19.36;85.40
68109;SHT30;54893;49.864;19.084;2023-07-24T23:52:55;19.40;85.05
68109;SHT30;54893;49.864;19.084;2023-07-24T23:57:55;19.30;85.37
